Medlin's Ranch, Nevada Weather observations

Data are for observation ending at time listed.
 Day   Time    Ave.   Ave.  Ave.  Vector   Max.   Stn.    Total    Solar   Ave.  
  of    of     Air    Rel.  Wind   Wind    Wind   Baro.  Precip.   Rad.    Soil  
Year   Day     Temp.  Hum.  Speed  Dir.    Gust   Pres.                    Temp. 
2014   (PST)    F      %     mph   deg.    mph     mb.     in.     W/m2     F   
------------------------------------------------------------------------------
 113    5:00   43.9    28    6.1   336     11.0    861     0.00       0    61.5
 113    6:00   44.1    29    6.0   341     10.0    862     0.00      19    60.9
 113    7:00   45.9    27    8.5   333     15.7    862     0.00     165    60.5
 113    8:00   48.8    25    8.9   339     15.0    862     0.00     488    60.5
 113    9:00   52.4    20   10.8   334     21.9    863     0.00     677    61.6
 113   10:00   54.4    17   10.1   338     18.5    863     0.00     830    63.5
 113   11:00   56.8    14    9.0   331     17.9    863     0.00     952    65.9
 113   12:00   58.6    13    7.5   299     16.0    862     0.00    1021    68.6
 113   13:00   60.9    13    6.8   305     18.2    862     0.00    1010    71.4
 113   14:00   62.9    12    6.3   316     14.2    862     0.00     930    73.7
 113   15:00   64.4    11    8.0   318     19.4    861     0.00     790    74.2
 113   16:00   65.4    10    8.8   325     16.7    861     0.00     598    74.6
 113   17:00   65.0     9    8.1   334     15.9    861     0.00     357    74.5
 113   18:00   64.0    11    7.1   342     13.0    861     0.00     145    73.6
 113   19:00   58.9    12    3.3   311      7.8    861     0.00       6    72.3
 113   20:00   51.9    15    3.5   254      5.2    862     0.00       0    70.7
 113   21:00   47.8    17    3.7   272      6.4    862     0.00       0    69.0
 113   22:00   45.3    20    3.2   304      5.6    863     0.00       0    67.3
 113   23:00   43.7    21    3.5   322      6.4    863     0.00       0    65.8
 114    0:00   44.9    21    3.2   290      7.3    863     0.00       0    64.5
 114    1:00   45.0    20    2.9   251      4.8    863     0.00       0    63.5
 114    2:00   43.3    22    3.8   279      5.8    863     0.00       0    62.6
 114    3:00   41.8    23    3.0   265      5.2    863     0.00       0    61.7
 114    4:00   40.7    24    4.2   246      5.8    863     0.00       0    60.8

Return to Medlin's Ranch, Nevada graphs page.


Western Regional Climate Center,wrcc@dri.edu